KBJJ/BJJ METAR and TAF weather

Enter ICAO airport designator
Station Type Date Time Source
KBJJ METAR 2019/05/27 08:56 UTC NOAA

KBJJ 270856Z AUTO 36005KT 10SM SCT039 13/12 A3006 RMK AO2 SLP174 T01330122 53001


Station Type Date Time Source
KBJJ Decoded METAR 2019/05/27 08:56 UTC NOAA

WOOSTER WAYNE COUNTY AIRPORT, OH, United States (KBJJ) 40-52N 81-53W 343M
May 27, 2019 - 04:56 AM EDT / 2019.05.27 0856 UTC
Wind: from the N (360 degrees) at 6 MPH (5 KT):0
Visibility: 10 mile(s):0
Sky conditions: partly cloudy
Temperature: 55.9 F (13.3 C)
Dew Point: 54.0 F (12.2 C)
Relative Humidity: 93%
Pressure (altimeter): 30.06 in. Hg (1017 hPa)
Pressure tendency: 0.00 inches (0.1 hPa) higher than three hours ago
ob: KBJJ 270856Z AUTO 36005KT 10SM SCT039 13/12 A3006 RMK AO2 SLP174 T01330122 53001
cycle: 9

Station Type Date Time Source
KBJJ TAF UTC NOAA

Error!

Example: see airport list